createdAt,value
2017-09-04T00:02:09.079Z,4.43
2017-09-04T00:04:37.154Z,6.67
2017-09-04T00:07:05.235Z,5.70
2017-09-04T00:09:33.319Z,5.10
2017-09-04T00:12:01.399Z,5.70
2017-09-04T00:14:29.484Z,6.33
2017-09-04T00:16:57.564Z,6.17
2017-09-04T00:19:25.627Z,4.97
2017-09-04T00:21:53.712Z,6.40
2017-09-04T00:24:21.779Z,5.83
2017-09-04T00:26:49.872Z,6.67
2017-09-04T00:29:17.939Z,7.47
2017-09-04T00:31:46.043Z,6.33
2017-09-04T00:34:14.148Z,5.77
2017-09-04T00:36:42.247Z,7.07
2017-09-04T00:39:10.318Z,14.57
2017-09-04T00:41:38.388Z,8.97
2017-09-04T00:44:06.466Z,11.83
2017-09-04T00:46:34.534Z,17.63
2017-09-04T00:49:02.631Z,15.10
2017-09-04T00:51:30.719Z,14.07
2017-09-04T00:53:58.800Z,20.73
2017-09-04T00:56:26.875Z,15.53
2017-09-04T00:58:55.129Z,17.07
2017-09-04T01:01:23.203Z,12.10
2017-09-04T01:03:51.314Z,16.23
2017-09-04T01:06:19.383Z,10.50
2017-09-04T01:08:47.467Z,9.73
2017-09-04T01:11:15.531Z,7.60
2017-09-04T01:13:43.610Z,7.90
2017-09-04T01:16:11.686Z,10.50
2017-09-04T01:18:39.763Z,9.70
2017-09-04T01:21:08.291Z,8.37
2017-09-04T01:23:36.363Z,9.70
2017-09-04T01:26:04.434Z,9.87
2017-09-04T01:28:32.519Z,17.60
2017-09-04T01:31:00.629Z,15.47
2017-09-04T01:33:28.714Z,20.03
2017-09-04T01:35:56.792Z,14.20
2017-09-04T01:38:24.903Z,11.63
2017-09-04T01:40:52.975Z,20.90
2017-09-04T01:43:21.042Z,12.60
2017-09-04T01:45:49.155Z,14.30
2017-09-04T01:48:17.241Z,10.23
2017-09-04T01:50:45.318Z,6.73
2017-09-04T01:53:13.409Z,7.27
2017-09-04T01:55:41.474Z,8.90
2017-09-04T01:58:09.543Z,7.43
2017-09-04T02:00:37.627Z,8.47
2017-09-04T02:03:05.691Z,9.97
2017-09-04T02:05:33.782Z,9.63
2017-09-04T02:08:01.851Z,9.07
2017-09-04T02:10:29.945Z,6.43
2017-09-04T02:12:58.021Z,8.87
2017-09-04T02:15:26.100Z,9.50
2017-09-04T02:17:54.183Z,16.70
2017-09-04T02:20:22.275Z,14.50
2017-09-04T02:22:50.339Z,14.37
2017-09-04T02:25:28.382Z,13.40
2017-09-04T02:27:56.469Z,11.17
2017-09-04T02:30:24.556Z,8.80
2017-09-04T02:32:52.628Z,7.93
2017-09-04T02:35:20.777Z,8.20
2017-09-04T02:37:48.873Z,7.60
2017-09-04T02:40:16.945Z,7.43
2017-09-04T02:42:45.019Z,7.03
2017-09-04T02:45:13.104Z,10.93
2017-09-04T02:47:41.180Z,7.30
2017-09-04T02:50:09.263Z,21.80
2017-09-04T02:52:37.331Z,17.83
2017-09-04T02:55:05.404Z,21.20
2017-09-04T02:57:33.495Z,9.50
2017-09-04T03:00:01.565Z,16.30
2017-09-04T03:02:29.649Z,24.83
2017-09-04T03:04:57.723Z,25.50
2017-09-04T03:07:25.800Z,12.43
2017-09-04T03:09:53.867Z,9.23
2017-09-04T03:12:21.950Z,8.40
2017-09-04T03:14:50.029Z,9.20
2017-09-04T03:17:18.108Z,8.20
2017-09-04T03:19:46.191Z,42.30
2017-09-04T03:22:14.267Z,24.13
2017-09-04T03:24:42.335Z,38.03
2017-09-04T03:27:10.423Z,28.10
2017-09-04T03:29:38.499Z,14.30
2017-09-04T03:32:06.576Z,57.10
2017-09-04T03:34:34.639Z,12.27
2017-09-04T03:37:02.759Z,16.77
2017-09-04T03:39:30.839Z,25.63
2017-09-04T03:41:58.923Z,49.17
2017-09-04T03:44:27.763Z,60.00
2017-09-04T03:46:55.857Z,57.40
2017-09-04T03:49:23.924Z,33.00
2017-09-04T03:51:52.006Z,105.57
2017-09-04T03:54:20.090Z,68.87
2017-09-04T03:56:48.167Z,38.07
2017-09-04T03:59:16.235Z,92.73
2017-09-04T04:01:44.318Z,29.43
2017-09-04T04:04:12.393Z,40.60
2017-09-04T04:06:40.460Z,25.37
2017-09-04T04:09:08.543Z,68.33
2017-09-04T04:11:36.620Z,34.43
2017-09-04T04:14:04.772Z,69.10
2017-09-04T04:16:32.851Z,44.00
2017-09-04T04:19:00.935Z,22.53
2017-09-04T04:21:29.019Z,22.23
2017-09-04T04:23:57.100Z,24.00
2017-09-04T04:26:25.172Z,25.83
2017-09-04T04:28:53.263Z,84.97
2017-09-04T04:31:21.334Z,81.37
2017-09-04T04:33:49.423Z,35.57
2017-09-04T04:36:17.503Z,31.67
2017-09-04T04:38:45.591Z,24.30
2017-09-04T04:41:13.672Z,37.20
2017-09-04T04:43:41.756Z,36.93
2017-09-04T04:46:09.825Z,29.60
2017-09-04T04:48:37.911Z,24.63
2017-09-04T04:51:05.981Z,43.47
2017-09-04T04:53:34.063Z,28.33
2017-09-04T04:56:02.142Z,36.57
2017-09-04T04:58:30.228Z,25.03
2017-09-04T05:00:58.305Z,25.40
2017-09-04T05:03:26.391Z,45.80
2017-09-04T05:05:54.464Z,67.93
2017-09-04T05:08:22.560Z,33.10
2017-09-04T05:10:50.644Z,48.40
2017-09-04T05:13:18.724Z,25.53
2017-09-04T05:15:46.850Z,49.43
2017-09-04T05:18:14.920Z,23.30
2017-09-04T05:20:43.008Z,24.77
2017-09-04T05:23:11.080Z,25.67
2017-09-04T05:25:39.168Z,51.77
2017-09-04T05:28:07.240Z,43.43
2017-09-04T05:30:35.332Z,47.37
2017-09-04T05:33:03.395Z,36.30
2017-09-04T05:35:31.492Z,60.80
2017-09-04T05:37:59.569Z,34.57
2017-09-04T05:40:27.663Z,35.60
2017-09-04T05:42:55.740Z,50.80
2017-09-04T05:45:23.818Z,34.57
2017-09-04T05:47:51.901Z,24.30
2017-09-04T05:50:19.977Z,27.47
2017-09-04T05:52:48.052Z,45.50
2017-09-04T05:55:16.168Z,28.47
2017-09-04T05:57:44.249Z,22.63
2017-09-04T06:00:12.338Z,30.53
2017-09-04T06:02:40.417Z,24.67
2017-09-04T06:05:08.515Z,30.57
2017-09-04T06:07:36.586Z,23.20
2017-09-04T06:10:04.670Z,17.70
2017-09-04T06:12:32.754Z,21.33
2017-09-04T06:15:00.845Z,15.17
2017-09-04T06:17:28.924Z,21.47
2017-09-04T06:19:57.008Z,18.03
2017-09-04T06:22:25.141Z,21.03
2017-09-04T06:24:53.215Z,15.93
2017-09-04T06:27:21.295Z,21.10
2017-09-04T06:29:49.371Z,20.53
2017-09-04T06:32:17.464Z,44.50
2017-09-04T06:34:45.547Z,36.47
2017-09-04T06:37:13.654Z,20.90
2017-09-04T06:39:41.752Z,40.83
2017-09-04T06:42:09.847Z,23.77
2017-09-04T06:44:37.927Z,23.33
2017-09-04T06:47:06.025Z,22.93
2017-09-04T06:49:34.124Z,15.27
2017-09-04T06:52:02.211Z,16.00
2017-09-04T06:54:30.335Z,16.00
2017-09-04T06:56:59.088Z,20.60
2017-09-04T06:59:27.169Z,18.40
2017-09-04T07:01:55.259Z,17.20
2017-09-04T07:04:23.342Z,26.77
2017-09-04T07:06:51.427Z,21.60
2017-09-04T07:09:20.042Z,15.37
2017-09-04T07:11:48.138Z,17.13
2017-09-04T07:14:16.207Z,14.90
2017-09-04T07:16:44.292Z,11.00
2017-09-04T07:19:12.371Z,14.10
2017-09-04T07:21:40.457Z,16.00
2017-09-04T07:24:08.545Z,22.20
2017-09-04T07:26:36.643Z,12.50
2017-09-04T07:29:04.800Z,19.27
2017-09-04T07:31:32.901Z,13.30
2017-09-04T07:34:00.989Z,12.23
2017-09-04T07:36:29.283Z,14.17
2017-09-04T07:38:57.395Z,11.47
2017-09-04T07:41:25.475Z,13.67
2017-09-04T07:43:53.600Z,13.20
2017-09-04T07:46:21.671Z,13.90
2017-09-04T07:48:50.584Z,14.87
2017-09-04T07:51:18.658Z,18.73
2017-09-04T07:53:46.755Z,21.57
2017-09-04T07:56:14.832Z,18.13
2017-09-04T07:58:42.937Z,20.90
2017-09-04T08:01:11.037Z,18.73
2017-09-04T08:03:39.114Z,18.67
2017-09-04T08:06:07.194Z,16.50
2017-09-04T08:08:35.283Z,13.97
2017-09-04T08:11:03.355Z,13.83
2017-09-04T08:13:31.468Z,15.00
2017-09-04T08:15:59.547Z,13.53
2017-09-04T08:18:27.623Z,15.90
2017-09-04T08:20:55.695Z,15.87
2017-09-04T08:23:23.791Z,14.00
2017-09-04T08:25:51.894Z,15.70
2017-09-04T08:28:19.983Z,14.50
2017-09-04T08:30:48.084Z,14.33
2017-09-04T08:33:16.167Z,14.70
2017-09-04T08:35:44.244Z,15.67
2017-09-04T08:38:12.366Z,13.37
2017-09-04T08:40:40.452Z,14.20
2017-09-04T08:43:08.571Z,13.40
2017-09-04T08:45:36.672Z,13.90
2017-09-04T08:48:04.750Z,12.93
2017-09-04T08:50:32.843Z,14.60
2017-09-04T08:53:00.932Z,12.37
2017-09-04T08:55:29.028Z,13.17
2017-09-04T08:57:57.111Z,12.80
2017-09-04T09:00:25.191Z,13.60
2017-09-04T09:02:53.263Z,13.37
2017-09-04T09:05:21.355Z,12.43
2017-09-04T09:07:49.439Z,14.83
2017-09-04T09:10:17.534Z,12.20
2017-09-04T09:12:45.618Z,11.30
2017-09-04T09:15:13.702Z,11.20
2017-09-04T09:17:41.779Z,9.90
2017-09-04T09:20:09.855Z,9.87
2017-09-04T09:22:37.939Z,10.40
2017-09-04T09:25:06.036Z,10.47
2017-09-04T09:27:34.119Z,10.13
2017-09-04T09:30:02.211Z,11.20
2017-09-04T09:32:30.285Z,9.93
2017-09-04T09:34:58.381Z,9.40
2017-09-04T09:37:26.439Z,8.40
2017-09-04T09:39:54.512Z,9.63
2017-09-04T09:42:22.588Z,10.30
2017-09-04T09:44:50.683Z,9.47
2017-09-04T09:47:19.251Z,9.33
2017-09-04T09:49:47.326Z,9.13
2017-09-04T09:52:15.402Z,8.50
2017-09-04T09:54:43.471Z,8.40
2017-09-04T09:57:11.563Z,8.07
2017-09-04T09:59:39.638Z,8.80
2017-09-04T10:02:07.715Z,9.33
2017-09-04T10:04:35.820Z,9.47
2017-09-04T10:07:03.908Z,8.07
2017-09-04T10:09:32.523Z,7.10
2017-09-04T10:12:00.651Z,10.47
2017-09-04T10:14:28.773Z,6.80
2017-09-04T10:16:56.924Z,7.03
2017-09-04T10:19:24.990Z,5.83
2017-09-04T10:21:53.104Z,5.57
2017-09-04T10:24:21.185Z,10.37
2017-09-04T10:26:49.264Z,5.20
2017-09-04T10:29:17.329Z,6.70
2017-09-04T10:31:45.430Z,5.30
2017-09-04T10:34:13.496Z,7.83
2017-09-04T10:36:41.577Z,6.47
2017-09-04T10:39:09.664Z,4.97
2017-09-04T10:41:37.740Z,4.40
2017-09-04T10:44:05.811Z,4.83
2017-09-04T10:46:33.883Z,4.10
2017-09-04T10:49:01.989Z,4.40
2017-09-04T10:51:30.071Z,4.60
2017-09-04T10:53:58.135Z,6.10
2017-09-04T10:56:26.219Z,5.20
2017-09-04T10:58:54.288Z,5.20
2017-09-04T11:01:22.369Z,4.90
2017-09-04T11:03:50.435Z,7.60
2017-09-04T11:06:18.499Z,4.37
2017-09-04T11:08:46.611Z,4.27
2017-09-04T11:11:14.683Z,4.53
2017-09-04T11:13:42.761Z,4.00
2017-09-04T11:16:10.841Z,3.67
2017-09-04T11:18:39.704Z,6.47
2017-09-04T11:21:07.788Z,3.93
2017-09-04T11:23:35.864Z,4.63
2017-09-04T11:26:03.940Z,4.20
2017-09-04T11:28:32.032Z,6.57
2017-09-04T11:31:00.119Z,4.40
2017-09-04T11:33:28.792Z,3.73
2017-09-04T11:35:56.879Z,5.87
2017-09-04T11:38:24.961Z,5.30
2017-09-04T11:40:53.053Z,7.00
2017-09-04T11:43:21.132Z,4.90
2017-09-04T11:45:50.188Z,4.40
2017-09-04T11:48:18.305Z,3.90
2017-09-04T11:50:46.404Z,3.97
2017-09-04T11:53:14.559Z,4.27
2017-09-04T11:55:42.649Z,4.97
2017-09-04T11:58:10.719Z,3.70
2017-09-04T12:00:38.796Z,4.30
2017-09-04T12:03:06.888Z,4.63
2017-09-04T12:05:34.974Z,10.53
2017-09-04T12:08:03.040Z,4.40
2017-09-04T12:10:31.115Z,4.40
2017-09-04T12:12:59.200Z,4.50
2017-09-04T12:15:27.271Z,5.20
2017-09-04T12:17:55.352Z,4.10
2017-09-04T12:20:23.424Z,6.27
2017-09-04T12:22:51.496Z,3.63
2017-09-04T12:25:19.561Z,3.77
2017-09-04T12:27:47.636Z,3.93
2017-09-04T12:30:15.700Z,5.07
2017-09-04T12:32:43.789Z,4.87
2017-09-04T12:35:11.846Z,5.13
2017-09-04T12:37:39.983Z,4.90
2017-09-04T12:40:08.059Z,4.97
2017-09-04T12:42:36.128Z,5.10
2017-09-04T12:45:04.213Z,5.23
2017-09-04T12:47:32.288Z,5.00
2017-09-04T12:50:00.363Z,5.00
2017-09-04T12:52:28.462Z,4.00
2017-09-04T12:54:56.541Z,5.40
2017-09-04T12:57:24.618Z,5.23
2017-09-04T12:59:52.690Z,5.93
2017-09-04T13:02:20.754Z,4.30
2017-09-04T13:04:48.831Z,8.67
2017-09-04T13:07:16.951Z,4.97
2017-09-04T13:09:45.027Z,7.70
2017-09-04T13:12:18.548Z,5.70
2017-09-04T13:14:52.131Z,4.60
2017-09-04T13:17:25.803Z,4.77
2017-09-04T13:19:59.359Z,5.23
2017-09-04T13:22:32.940Z,5.10
2017-09-04T13:28:25.579Z,4.40
2017-09-04T13:30:59.129Z,3.40
2017-09-04T13:36:50.354Z,5.53
2017-09-04T13:39:24.087Z,4.17
2017-09-04T13:41:57.728Z,5.17
2017-09-04T13:44:32.025Z,5.20
2017-09-04T13:47:05.815Z,3.93
2017-09-04T13:49:34.702Z,3.67
2017-09-04T13:52:08.372Z,4.43
2017-09-04T13:57:55.538Z,3.57
2017-09-04T14:00:29.115Z,4.67
2017-09-04T14:03:00.135Z,4.17
2017-09-04T14:08:37.198Z,3.90
2017-09-04T14:11:10.800Z,3.87
2017-09-04T14:13:46.081Z,4.47
2017-09-04T14:16:19.886Z,4.03
2017-09-04T14:18:47.977Z,4.63
2017-09-04T14:21:16.051Z,6.10
2017-09-04T14:23:44.344Z,5.50
2017-09-04T14:26:12.411Z,3.93
2017-09-04T14:28:40.482Z,4.57
2017-09-04T14:31:08.590Z,4.10
2017-09-04T14:33:36.675Z,3.80
2017-09-04T14:36:04.743Z,3.93
2017-09-04T14:38:32.929Z,3.97
2017-09-04T14:41:01.420Z,3.50
2017-09-04T14:46:38.464Z,4.00
2017-09-04T14:49:06.542Z,4.10
2017-09-04T14:51:34.675Z,3.53
2017-09-04T14:54:02.760Z,4.27
2017-09-04T14:56:30.844Z,3.53
2017-09-04T14:58:59.608Z,3.80
2017-09-04T15:01:27.688Z,4.57
2017-09-04T15:03:55.756Z,3.63
2017-09-04T15:06:23.843Z,3.50
2017-09-04T15:08:51.916Z,3.97
2017-09-04T15:11:19.995Z,3.77
2017-09-04T15:13:48.120Z,3.50
2017-09-04T15:16:16.199Z,4.70
2017-09-04T15:18:44.275Z,4.20
2017-09-04T15:21:12.359Z,3.57
2017-09-04T15:23:40.428Z,4.17
2017-09-04T15:26:08.496Z,3.33
2017-09-04T15:28:37.270Z,3.77
2017-09-04T15:31:05.347Z,4.00
2017-09-04T15:33:33.414Z,5.73
2017-09-04T15:36:01.480Z,3.93
2017-09-04T15:38:29.560Z,3.37
2017-09-04T15:40:57.635Z,3.50
2017-09-04T15:43:25.711Z,3.57
2017-09-04T15:45:53.791Z,3.17
2017-09-04T15:48:21.879Z,3.50
2017-09-04T15:50:49.948Z,5.13
2017-09-04T15:53:18.043Z,4.07
2017-09-04T15:55:46.131Z,3.33
2017-09-04T15:58:14.208Z,3.23
2017-09-04T16:00:43.569Z,3.63
2017-09-04T16:03:11.623Z,6.37
2017-09-04T16:05:41.197Z,4.20
2017-09-04T16:08:19.216Z,3.43
2017-09-04T16:10:47.287Z,3.10
2017-09-04T16:13:18.211Z,3.60
2017-09-04T16:19:02.064Z,3.30
2017-09-04T16:24:47.122Z,3.30
2017-09-04T16:27:20.849Z,3.37
2017-09-04T16:29:54.468Z,3.70
2017-09-04T16:35:50.006Z,3.93
2017-09-04T16:38:28.011Z,4.10
2017-09-04T16:40:59.058Z,3.77
2017-09-04T16:43:28.044Z,5.90
2017-09-04T16:45:59.920Z,4.30
2017-09-04T16:48:27.988Z,4.00
2017-09-04T16:53:57.872Z,3.63
2017-09-04T16:56:26.279Z,3.77
2017-09-04T16:58:54.339Z,3.53
2017-09-04T17:01:22.409Z,5.07
2017-09-04T17:03:50.517Z,4.50
2017-09-04T17:06:18.596Z,4.50
2017-09-04T17:08:46.667Z,4.60
2017-09-04T17:11:19.361Z,4.70
2017-09-04T17:13:47.500Z,3.57
2017-09-04T17:16:20.128Z,4.73
2017-09-04T17:19:04.975Z,9.93
2017-09-04T17:21:33.847Z,3.50
2017-09-04T17:24:12.776Z,3.90
2017-09-04T17:26:40.856Z,4.40
2017-09-04T17:29:08.931Z,4.67
2017-09-04T17:31:37.003Z,5.37
2017-09-04T17:34:05.073Z,4.97
2017-09-04T17:36:33.175Z,5.40
2017-09-04T17:39:01.244Z,5.47
2017-09-04T17:41:29.316Z,4.27
2017-09-04T17:43:57.397Z,6.20
2017-09-04T17:46:25.465Z,5.50
2017-09-04T17:48:53.587Z,7.93
2017-09-04T17:51:21.676Z,6.57
2017-09-04T17:53:49.764Z,5.37
2017-09-04T17:56:17.833Z,5.83
2017-09-04T17:58:45.957Z,7.23
2017-09-04T18:01:14.165Z,28.17
2017-09-04T18:03:42.279Z,6.67
2017-09-04T18:06:10.385Z,7.40
2017-09-04T18:08:38.518Z,7.87
2017-09-04T18:11:06.605Z,7.20
2017-09-04T18:13:34.715Z,9.50
2017-09-04T18:16:02.826Z,11.97
2017-09-04T18:18:30.937Z,8.33
2017-09-04T18:20:59.037Z,7.70
2017-09-04T18:23:27.154Z,9.10
2017-09-04T18:25:55.265Z,7.20
2017-09-04T18:28:23.361Z,9.13
2017-09-04T18:30:51.473Z,8.23
2017-09-04T18:33:19.560Z,7.00
2017-09-04T18:35:47.683Z,6.80
2017-09-04T18:38:15.775Z,10.60
2017-09-04T18:40:43.874Z,8.07
2017-09-04T18:43:11.984Z,8.10
2017-09-04T18:45:40.121Z,8.73
2017-09-04T18:48:08.207Z,7.73
2017-09-04T18:50:36.282Z,8.07
2017-09-04T18:53:04.383Z,6.90
2017-09-04T18:55:32.446Z,6.00
2017-09-04T18:58:00.561Z,6.17
2017-09-04T19:00:28.717Z,6.60
2017-09-04T19:02:56.824Z,6.50
2017-09-04T19:05:24.897Z,7.70
2017-09-04T19:07:53.020Z,9.23
2017-09-04T19:10:21.133Z,8.03
2017-09-04T19:12:49.586Z,7.50
2017-09-04T19:15:17.705Z,7.03
2017-09-04T19:17:45.771Z,7.10
2017-09-04T19:20:13.852Z,6.67
2017-09-04T19:22:41.928Z,6.40
2017-09-04T19:25:10.011Z,6.63
2017-09-04T19:27:38.080Z,7.33
2017-09-04T19:30:06.160Z,7.57
2017-09-04T19:32:34.227Z,7.40
2017-09-04T19:35:02.311Z,6.83
2017-09-04T19:37:30.379Z,6.77
2017-09-04T19:39:58.473Z,6.53
2017-09-04T19:42:26.538Z,6.10
2017-09-04T19:44:54.607Z,6.10
2017-09-04T19:47:22.697Z,7.07
2017-09-04T19:49:50.768Z,7.70
2017-09-04T19:52:18.880Z,9.10
2017-09-04T19:54:46.964Z,13.40
2017-09-04T19:57:15.035Z,9.83
2017-09-04T19:59:43.108Z,8.53
2017-09-04T20:02:11.187Z,8.13
2017-09-04T20:04:39.257Z,8.00
2017-09-04T20:07:07.331Z,7.97
2017-09-04T20:09:35.404Z,9.13
2017-09-04T20:12:03.483Z,8.83
2017-09-04T20:14:31.554Z,8.27
2017-09-04T20:16:59.635Z,8.87
2017-09-04T20:19:27.715Z,8.27
2017-09-04T20:21:55.874Z,8.00
2017-09-04T20:24:23.952Z,8.10
2017-09-04T20:26:52.024Z,7.83
2017-09-04T20:29:20.096Z,9.27
2017-09-04T20:31:48.168Z,7.47
2017-09-04T20:34:16.239Z,8.93
2017-09-04T20:36:44.316Z,18.73
2017-09-04T20:39:12.606Z,9.60
2017-09-04T20:41:40.671Z,8.00
2017-09-04T20:44:09.023Z,9.80
2017-09-04T20:46:37.137Z,9.57
2017-09-04T20:49:05.212Z,9.30
2017-09-04T20:51:33.296Z,9.13
2017-09-04T20:54:01.373Z,25.90
2017-09-04T20:56:29.469Z,24.50
2017-09-04T20:58:57.535Z,16.77
2017-09-04T21:01:25.644Z,9.43
2017-09-04T21:03:53.744Z,7.63
2017-09-04T21:06:21.829Z,8.97
2017-09-04T21:08:49.909Z,10.63
2017-09-04T21:11:18.005Z,11.40
2017-09-04T21:13:46.072Z,8.93
2017-09-04T21:16:14.138Z,9.77
2017-09-04T21:18:42.210Z,8.97
2017-09-04T21:21:10.287Z,9.47
2017-09-04T21:23:38.364Z,9.80
2017-09-04T21:26:06.451Z,9.73
2017-09-04T21:28:34.534Z,9.57
2017-09-04T21:31:02.598Z,7.83
2017-09-04T21:33:30.680Z,8.70
2017-09-04T21:35:58.739Z,8.40
2017-09-04T21:38:26.823Z,7.73
2017-09-04T21:40:54.886Z,8.33
2017-09-04T21:43:22.965Z,9.40
2017-09-04T21:45:51.068Z,12.80
2017-09-04T21:48:19.130Z,9.07
2017-09-04T21:50:47.220Z,8.83
2017-09-04T21:53:15.315Z,8.37
2017-09-04T21:55:43.404Z,9.67
2017-09-04T21:58:11.474Z,9.60
2017-09-04T22:00:39.556Z,10.83
2017-09-04T22:03:07.636Z,10.07
2017-09-04T22:05:35.739Z,11.97
2017-09-04T22:08:03.827Z,10.90
2017-09-04T22:10:31.936Z,10.20
2017-09-04T22:13:00.070Z,12.37
2017-09-04T22:15:28.165Z,8.77
2017-09-04T22:17:56.246Z,9.70
2017-09-04T22:20:24.344Z,9.00
2017-09-04T22:22:52.449Z,11.07
2017-09-04T22:25:20.531Z,11.60
2017-09-04T22:27:48.654Z,10.90
2017-09-04T22:30:16.765Z,12.67
2017-09-04T22:32:44.868Z,10.33
2017-09-04T22:35:12.966Z,11.40
2017-09-04T22:37:41.061Z,9.80
2017-09-04T22:40:09.171Z,10.73
2017-09-04T22:42:37.251Z,9.93
2017-09-04T22:45:05.360Z,10.40
2017-09-04T22:47:33.485Z,10.50
2017-09-04T22:50:01.565Z,8.73
2017-09-04T22:52:29.642Z,10.47
2017-09-04T22:54:57.750Z,9.87
2017-09-04T22:57:25.832Z,9.53
2017-09-04T22:59:53.920Z,11.63
2017-09-04T23:02:22.024Z,10.97
2017-09-04T23:04:50.131Z,10.30
2017-09-04T23:07:18.238Z,11.40
2017-09-04T23:09:46.330Z,12.40
2017-09-04T23:12:14.448Z,10.70
2017-09-04T23:14:42.538Z,9.97
2017-09-04T23:17:10.645Z,11.67
2017-09-04T23:19:38.768Z,10.90
2017-09-04T23:22:06.848Z,10.50
2017-09-04T23:24:34.958Z,11.77
2017-09-04T23:27:03.052Z,14.27
2017-09-04T23:29:31.153Z,12.27
2017-09-04T23:31:59.272Z,12.27
2017-09-04T23:34:27.359Z,11.67
2017-09-04T23:36:55.476Z,11.93
2017-09-04T23:39:23.572Z,13.77
2017-09-04T23:41:51.679Z,10.47
2017-09-04T23:44:19.866Z,10.93
2017-09-04T23:46:47.982Z,11.70
2017-09-04T23:49:16.066Z,11.30
2017-09-04T23:51:44.181Z,12.43
2017-09-04T23:54:12.263Z,12.00
2017-09-04T23:56:40.381Z,10.87
2017-09-04T23:59:08.484Z,12.00
